Flight Track Log - Related Links

Times and Time Zones

All times are in EDT time to prevent confusion due to time zone crossing. See the RPA3275 flight status page for this flight to view local times or setup timezone preferences in your user account.

Time Position Orientation Groundspeed Altitude Reporting Facility
EDT Latitude Longitude Course Direction KTS MPH feet Rate Location/Type
Sun 09:25:46 AM 39.8667 -75.2833 270° West 187 215 800  Level Philadelphia TRACON
Sun 09:26:46 AM 39.8500 -75.3333 247° West 180 207 2,700 2,223 Climbing Philadelphia TRACON
Sun 09:28:00 AM 39.9140 -75.6560 288° West  Level FlightAware Approximate
Sun 09:29:00 AM 39.9007 -75.7628 258° West  Level FlightAware Approximate
Sun 09:29:03 AM 39.8756 -75.5369 279° West 268 308 8,100  Level New York Center
Sun 09:30:00 AM 39.9001 -75.8723 270° West  Level FlightAware Approximate
Sun 09:30:04 AM 39.9050 -75.6283 293° West 268 308 9,900  Level New York Center
Sun 09:31:00 AM 39.9000 -75.9820 270° West  Level FlightAware Approximate
Sun 09:31:04 AM 39.9406 -75.7308 294° West 288 331 11,800  Level New York Center
Sun 09:32:03 AM 39.9650 -75.8411 286° West 308 354 13,900 2,168 Climbing New York Center
Sun 09:33:03 AM 39.9703 -75.9553 273° West 313 360 16,100 2,132 Climbing New York Center
Sun 09:34:04 AM 39.9781 -76.0642 275° West 331 381 18,200 2,100 Climbing New York Center
Sun 09:35:03 AM 39.9906 -76.2033 277° West 345 397 20,300 2,017 Climbing New York Center
Sun 09:36:03 AM 39.9950 -76.3311 273° West 356 410 22,200 1,785 Climbing New York Center
Sun 09:37:04 AM 40.0031 -76.4644 275° West 361 415 23,900 1,574 Climbing New York Center
Sun 09:38:05 AM 40.0131 -76.6008 276° West 379 436 25,400 1,388 Climbing New York Center
Sun 09:39:05 AM 40.0189 -76.7397 273° West 390 449 26,700 1,289 Climbing New York Center
Sun 09:40:06 AM 40.0300 -76.8844 276° West 395 455 28,000 1,210 Climbing New York Center
Sun 09:41:04 AM 40.0389 -77.0344 274° West 408 470 29,100 1,037 Climbing New York Center
Sun 09:42:48 AM 40.0547 -77.2847 275° West 428 493 30,800 1,024 Climbing Cleveland Center
Sun 09:43:48 AM 40.0633 -77.4417 274° West 428 493 31,900 1,100 Climbing Cleveland Center
Sun 09:44:48 AM 40.0717 -77.5958 274° West 433 498 33,000 1,150 Climbing Cleveland Center
Sun 09:45:48 AM 40.0800 -77.7503 274° West 433 498 34,200 1,150 Climbing Cleveland Center
Sun 09:46:48 AM 40.0878 -77.9047 274° West 433 498 35,300 900 Climbing Cleveland Center
Sun 09:47:48 AM 40.0936 -78.0672 273° West 433 498 36,000 350 Climbing Cleveland Center
Sun 09:48:48 AM 40.1011 -78.2244 274° West 433 498 36,000  Level Cleveland Center
Sun 09:49:48 AM 40.1086 -78.3842 274° West 433 498 36,000  Level Cleveland Center
Sun 09:50:48 AM 40.1156 -78.5417 273° West 433 498 36,000  Level Cleveland Center
Sun 09:51:48 AM 40.1244 -78.6961 274° West 438 504 36,000  Level Cleveland Center
Sun 09:52:48 AM 40.1478 -78.8503 281° West 438 504 36,000  Level Cleveland Center
Sun 09:53:48 AM 40.1917 -79.0039 291° West 438 504 36,000  Level Cleveland Center
Sun 09:54:48 AM 40.2353 -79.1525 291° West 443 510 36,000 -500 Level Cleveland Center
Sun 09:55:48 AM 40.2789 -79.3039 291° West 443 510 35,000 -3,000 Descending Cleveland Center
Sun 09:56:48 AM 40.3178 -79.4394 291° West 448 516 30,000  Descending Cleveland Center
Sun 09:57:48 AM 40.3631 -79.5939 291° West 448 516 35,000 2,500 Climbing Cleveland Center
Sun 09:58:48 AM 40.4039 -79.7433 290° West 448 516 35,000  Level Cleveland Center
Sun 09:59:48 AM 40.4467 -79.8983 290° West 448 516 35,000  Level Cleveland Center
Sun 10:00:48 AM 40.4914 -80.0725 289° West 454 522 35,000 -300 Level Cleveland Center
Sun 10:01:48 AM 40.5336 -80.2281 290° West 459 528 34,400 -1,550 Descending Cleveland Center
Sun 10:02:48 AM 40.5778 -80.3781 291° West 459 528 31,900 -2,200 Descending Cleveland Center
Sun 10:03:48 AM 40.6153 -80.5367 287° West 454 522 30,000 -950 Descending Cleveland Center
Sun 10:04:48 AM 40.6592 -80.6925 290° West 454 522 30,000  Level Cleveland Center
Sun 10:05:48 AM 40.7236 -80.8350 301° West 454 522 30,000  Level Cleveland Center
Sun 10:06:48 AM 40.7939 -80.9808 303° West 459 528 30,000  Level Cleveland Center
Sun 10:07:48 AM 40.8581 -81.1239 301° West 468 539 30,000  Level Cleveland Center
Sun 10:08:48 AM 40.9303 -81.2703 303° West 473 544 30,000 -100 Level Cleveland Center
Sun 10:09:48 AM 40.9919 -81.4000 302° West 473 544 29,800 -900 Descending Cleveland Center
Sun 10:10:48 AM 41.0594 -81.5414 302° West 473 544 28,200 -1,350 Descending Cleveland Center
Sun 10:11:48 AM 41.1394 -81.6969 304° West 473 544 27,100 -900 Descending Cleveland Center
Sun 10:12:48 AM 41.2089 -81.8417 303° West 473 544 26,400 -950 Descending Cleveland Center
Sun 10:13:48 AM 41.2719 -81.9783 302° West 461 531 25,200 -1,300 Descending Cleveland Center
Sun 10:14:48 AM 41.3347 -82.1069 303° West 439 505 23,800 -1,700 Descending Cleveland Center
Sun 10:15:48 AM 41.3978 -82.2272 305° West 416 479 21,800 -1,950 Descending Cleveland Center
Sun 10:16:48 AM 41.4608 -82.3342 308° West 385 443 19,900 -1,900 Descending Cleveland Center
Sun 10:17:48 AM 41.5239 -82.4414 308° West 371 427 18,000 -1,722 Descending Cleveland Center
Sun 10:18:36 AM 41.5706 -82.5206 308° West 352 405 16,800 -1,748 Descending Cleveland Center
Sun 10:19:31 AM 41.6272 -82.6139 309° West 346 398 15,000 -2,016 Descending Cleveland Center
Sun 10:20:38 AM 41.6939 -82.7272 308° West 339 390 12,700 -1,475 Descending Cleveland Center
Sun 10:21:33 AM 41.7486 -82.8097 312° West 318 366 12,000 -362 Descending Cleveland Center
Sun 10:22:34 AM 41.8200 -82.8958 318° Northwest 328 377 12,000  Level Cleveland Center
Sun 10:23:35 AM 41.8869 -82.9764 318° Northwest 328 377 12,000  Level Cleveland Center
Sun 10:24:36 AM 41.9542 -83.0569 318° Northwest 327 376 12,000 -49 Level Cleveland Center
Sun 10:25:37 AM 42.0253 -83.1408 319° Northwest 325 374 11,900 -443 Descending Cleveland Center
Sun 10:26:38 AM 42.0861 -83.2189 316° Northwest 299 344 11,100 -443 Descending Cleveland Center
Sun 10:27:39 AM 42.1567 -83.2331 352° North 254 292 11,000 -517 Descending Cleveland Center
Sun 10:28:34 AM 42.2114 -83.2017 23° Northeast 244 281 10,100 -1,138 Descending Cleveland Center
Sun 10:29:35 AM 42.2728 -83.1647 24° Northeast 234 269 8,800 -984 Descending Cleveland Center
Sun 10:30:42 AM 42.3342 -83.1225 27° Northeast 222 255 8,000 -891 Descending Cleveland Center
Sun 10:31:43 AM 42.3933 -83.0883 23° Northeast 221 254 6,900 -976 Descending Cleveland Center
Sun 10:32:45 AM 42.4461 -83.0508 28° Northeast 215 247 6,000 -439 Descending Cleveland Center
Sun 10:33:46 AM 42.4872 -83.0806 332° Northwest 177 204 6,000  Level Cleveland Center
Sun 10:34:47 AM 42.4672 -83.1419 246° West 178 205 6,000 -103 Level Cleveland Center
Sun 10:35:42 AM 42.4331 -83.1797 219° Southwest 180 207 5,800 -218 Descending Cleveland Center

Login

Don't have an account? Register now (free) for customized features, flight alerts, and more!